Time;durP1;ratioP1;P1;durP2;ratioP2;P2;SDS_P1;SDS_P2;PMS_P1;PMS_P2;Temp;Humidity;BMP_temperature;BMP_pressure;BME280_temperature;BME280_humidity;BME280_pressure;Samples;Min_cycle;Max_cycle;Signal;HPM_P1;HPM_P2
2020/12/08 00:01:35;;;;;;;13.83;6.07;;;;;;;;;;5015540;28;20196;-83
2020/12/08 00:04:02;;;;;;;8.03;5.63;;;;;;;;;;5028026;28;20214;-83
2020/12/08 00:06:28;;;;;;;11.27;6.00;;;;;;;;;;5022898;28;20199;-83
2020/12/08 00:08:54;;;;;;;10.43;5.87;;;;;;;;;;5020788;28;20209;-83
2020/12/08 00:11:20;;;;;;;9.83;6.17;;;;;;;;;;5022526;28;20188;-83
2020/12/08 00:13:47;;;;;;;7.37;5.17;;;;;;;;;;5024464;28;20250;-83
2020/12/08 00:16:13;;;;;;;7.43;5.43;;;;;;;;;;5037129;28;20766;-83
2020/12/08 00:18:39;;;;;;;9.47;5.10;;;;;;;;;;5028055;28;20673;-83
2020/12/08 00:21:06;;;;;;;8.03;5.60;;;;;;;;;;5033712;28;20191;-84
2020/12/08 00:23:32;;;;;;;7.53;5.47;;;;;;;;;;5028702;28;20188;-81
2020/12/08 00:25:59;;;;;;;7.77;4.63;;;;;;;;;;5023004;28;20247;-82
2020/12/08 00:28:25;;;;;;;9.70;6.03;;;;;;;;;;5017498;28;20200;-82
2020/12/08 00:30:51;;;;;;;7.50;5.10;;;;;;;;;;5013442;28;20250;-82
2020/12/08 00:33:18;;;;;;;10.80;5.83;;;;;;;;;;5025060;28;20240;-82
2020/12/08 00:35:44;;;;;;;7.57;5.57;;;;;;;;;;5024313;28;20210;-81
2020/12/08 00:38:10;;;;;;;8.87;5.27;;;;;;;;;;5016258;28;20187;-82
2020/12/08 00:40:36;;;;;;;10.33;5.80;;;;;;;;;;5026615;28;20242;-81
2020/12/08 00:43:02;;;;;;;10.30;6.37;;;;;;;;;;5027051;28;20187;-82
2020/12/08 00:45:28;;;;;;;7.83;5.50;;;;;;;;;;5024736;28;20715;-81
2020/12/08 00:47:54;;;;;;;9.40;4.97;;;;;;;;;;5026767;28;20238;-82
2020/12/08 00:50:20;;;;;;;8.63;5.37;;;;;;;;;;5020045;28;22177;-82
2020/12/08 00:52:46;;;;;;;7.70;5.37;;;;;;;;;;5027843;28;20263;-82
2020/12/08 00:55:13;;;;;;;7.50;5.03;;;;;;;;;;5026360;28;20215;-82
2020/12/08 00:57:39;;;;;;;8.53;6.23;;;;;;;;;;5022578;28;20199;-82
2020/12/08 01:00:06;;;;;;;8.20;6.10;;;3.40;82.40;;;;;;5015960;28;20186;-82
2020/12/08 01:02:32;;;;;;;9.47;5.37;;;;;;;;;;5025817;28;20195;-82
2020/12/08 01:04:58;;;;;;;9.27;5.13;;;;;;;;;;5022931;28;20218;-82
2020/12/08 01:07:24;;;;;;;8.63;4.90;;;;;;;;;;5025110;28;20198;-82
2020/12/08 01:09:50;;;;;;;9.03;5.40;;;;;;;;;;5028972;28;20191;-82
2020/12/08 01:12:16;;;;;;;8.53;5.40;;;;;;;;;;5008367;28;20197;-82
2020/12/08 01:14:42;;;;;;;9.67;4.80;;;;;;;;;;4992903;28;20645;-82
2020/12/08 01:17:08;;;;;;;8.53;5.27;;;;;;;;;;4981806;28;20252;-82
2020/12/08 01:19:34;;;;;;;8.67;5.30;;;;;;;;;;4985115;28;20205;-82
2020/12/08 01:22:00;;;;;;;9.73;5.50;;;;;;;;;;4992149;28;20211;-82
2020/12/08 01:24:26;;;;;;;6.43;3.73;;;;;;;;;;4986851;28;20193;-82
2020/12/08 01:26:52;;;;;;;7.03;4.90;;;;;;;;;;4992783;28;20214;-82
2020/12/08 01:29:18;;;;;;;9.80;4.87;;;;;;;;;;5002818;28;20193;-82
2020/12/08 01:31:44;;;;;;;7.83;5.33;;;;;;;;;;4984353;28;20192;-82
2020/12/08 01:34:10;;;;;;;7.33;4.57;;;;;;;;;;4981066;28;20223;-85
2020/12/08 01:36:36;;;;;;;7.10;4.47;;;;;;;;;;4979622;28;20192;-85
2020/12/08 01:39:03;;;;;;;7.87;5.00;;;;;;;;;;4998266;28;20197;-85
2020/12/08 01:41:29;;;;;;;4.97;3.43;;;;;;;;;;4977446;28;20219;-88
2020/12/08 01:43:55;;;;;;;8.37;4.73;;;;;;;;;;4999597;28;20196;-84
2020/12/08 01:46:24;;;;;;;8.53;5.70;;;3.20;79.70;;;;;;5009621;28;20180;-84
2020/12/08 01:48:51;;;;;;;9.60;5.80;;;3.20;79.00;;;;;;5012684;28;20272;-85
2020/12/08 01:51:18;;;;;;;8.67;5.17;;;3.20;79.00;;;;;;5005350;28;20246;-85
2020/12/08 01:53:45;;;;;;;9.70;5.50;;;;;;;;;;5007309;28;20206;-84
2020/12/08 01:56:14;;;;;;;9.30;5.00;;;3.20;79.00;;;;;;5009846;28;20560;-84
2020/12/08 01:58:40;;;;;;;7.60;4.90;;;;;;;;;;5010538;28;20191;-84
2020/12/08 02:01:10;;;;;;;7.40;4.10;;;3.30;78.50;;;;;;4999623;28;20226;-84
2020/12/08 02:03:36;;;;;;;8.90;5.43;;;;;;;;;;5005236;28;20309;-84
2020/12/08 02:06:02;;;;;;;9.10;5.50;;;;;;;;;;5010057;28;20187;-83
2020/12/08 02:08:32;;;;;;;10.57;5.13;;;3.30;78.80;;;;;;5007261;28;20227;-83
2020/12/08 02:10:59;;;;;;;9.30;4.50;;;;;;;;;;5003615;28;20565;-83
2020/12/08 02:13:25;;;;;;;10.10;6.23;;;;;;;;;;5019790;28;20188;-83
2020/12/08 02:15:51;;;;;;;8.73;5.27;;;3.10;79.20;;;;;;5018540;28;20678;-83
2020/12/08 02:18:17;;;;;;;8.13;5.10;;;;;;;;;;5015415;28;20183;-83
2020/12/08 02:20:44;;;;;;;7.17;4.80;;;;;;;;;;5010759;28;20187;-83
2020/12/08 02:23:10;;;;;;;8.47;5.33;;;;;;;;;;5007039;28;20202;-83
2020/12/08 02:25:37;;;;;;;7.33;5.03;;;3.20;79.20;;;;;;5017691;28;20207;-83
2020/12/08 02:28:03;;;;;;;9.70;5.67;;;;;;;;;;5014064;28;20192;-83
2020/12/08 02:30:29;;;;;;;9.67;5.57;;;;;;;;;;5016133;28;20200;-84
2020/12/08 02:32:55;;;;;;;7.20;4.63;;;3.20;78.70;;;;;;5013265;28;20260;-84
2020/12/08 02:35:21;;;;;;;7.83;5.23;;;3.30;78.10;;;;;;5014078;28;20610;-84
2020/12/08 02:37:47;;;;;;;6.67;4.80;;;;;;;;;;5004293;28;20230;-84
2020/12/08 02:40:13;;;;;;;9.10;5.40;;;;;;;;;;5010774;28;20565;-84
2020/12/08 02:42:39;;;;;;;9.53;5.57;;;3.30;77.70;;;;;;5016953;28;20231;-84
2020/12/08 02:45:04;;;;;;;7.83;4.60;;;3.40;77.60;;;;;;5018218;28;20278;-84
2020/12/08 02:47:30;;;;;;;8.17;5.43;;;;;;;;;;5004848;28;20223;-84
2020/12/08 02:49:56;;;;;;;6.43;4.47;;;;;;;;;;5027546;28;20186;-83
2020/12/08 02:52:22;;;;;;;9.80;5.33;;;3.40;77.10;;;;;;5011219;28;20678;-84
2020/12/08 02:54:48;;;;;;;9.40;5.60;;;;;;;;;;5005798;28;20794;-84
2020/12/08 02:57:15;;;;;;;8.93;6.30;;;;;;;;;;5011189;28;20187;-84
2020/12/08 02:59:41;;;;;;;8.03;5.57;;;;;;;;;;5016562;28;20192;-84
2020/12/08 03:02:06;;;;;;;9.17;6.07;;;3.50;77.50;;;;;;5005756;28;20333;-84
2020/12/08 03:04:32;;;;;;;8.63;5.40;;;3.40;77.50;;;;;;5016408;28;20234;-84
2020/12/08 03:06:58;;;;;;;8.10;5.73;;;;;;;;;;5006596;28;20313;-84
2020/12/08 03:09:24;;;;;;;7.93;5.13;;;;;;;;;;5006782;28;20744;-83
2020/12/08 03:11:50;;;;;;;9.00;5.80;;;;;;;;;;5008550;28;20215;-84
2020/12/08 03:14:16;;;;;;;9.00;5.50;;;;;;;;;;4984554;28;20223;-83
2020/12/08 03:16:42;;;;;;;8.53;5.33;;;;;;;;;;4967605;28;22360;-84
2020/12/08 03:19:08;;;;;;;8.50;5.23;;;;;;;;;;4989832;28;20200;-84
2020/12/08 03:21:34;;;;;;;8.93;6.47;;;;;;;;;;4976788;28;20771;-84
2020/12/08 03:24:01;;;;;;;7.37;4.57;;;;;;;;;;4978321;28;20242;-84
2020/12/08 03:26:27;;;;;;;10.70;6.10;;;;;;;;;;4970252;28;20188;-83
2020/12/08 03:28:54;;;;;;;11.20;5.97;;;;;;;;;;4979622;28;20208;-84
2020/12/08 03:31:19;;;;;;;8.93;5.37;;;3.60;77.40;;;;;;4993739;28;20203;-84
2020/12/08 03:33:45;;;;;;;8.00;4.97;;;;;;;;;;4981973;28;20189;-84
2020/12/08 03:36:20;;;;;;;7.43;5.40;;;3.60;76.70;;;;;;4971984;28;20225;-84
2020/12/08 03:38:47;;;;;;;10.37;5.90;;;3.70;77.00;;;;;;4991738;28;20671;-84
2020/12/08 03:41:23;;;;;;;9.37;5.83;;;3.70;76.60;;;;;;4974188;28;20182;-84
2020/12/08 03:43:50;;;;;;;7.77;4.97;;;3.70;76.60;;;;;;4988568;28;20197;-84
2020/12/08 03:46:20;;;;;;;10.40;6.47;;;3.70;76.20;;;;;;5025503;28;20226;-83
2020/12/08 03:48:46;;;;;;;8.30;4.77;;;;;;;;;;5009000;28;22065;-83
2020/12/08 03:51:16;;;;;;;14.03;7.60;;;3.70;76.10;;;;;;5003713;28;20286;-83
2020/12/08 03:53:42;;;;;;;10.43;5.50;;;;;;;;;;5006977;28;20231;-84
2020/12/08 03:56:12;;;;;;;9.70;5.97;;;3.70;75.40;;;;;;5005570;28;20295;-83
2020/12/08 03:58:40;;;;;;;10.70;6.37;;;3.70;75.40;;;;;;5015241;28;20188;-84
2020/12/08 04:01:07;;;;;;;13.23;7.67;;;3.70;75.40;;;;;;5006285;28;20666;-84
2020/12/08 04:03:33;;;;;;;9.33;6.07;;;;;;;;;;5024283;28;20233;-84
2020/12/08 04:06:03;;;;;;;10.33;5.80;;;3.60;75.30;;;;;;5019202;28;20191;-84
2020/12/08 04:08:29;;;;;;;9.93;6.83;;;;;;;;;;5006966;28;20196;-84
2020/12/08 04:10:56;;;;;;;8.60;5.40;;;;;;;;;;5006158;28;20207;-83
2020/12/08 04:13:21;;;;;;;11.23;6.07;;;3.60;76.80;;;;;;5005122;28;20195;-83
2020/12/08 04:15:48;;;;;;;9.63;6.20;;;;;;;;;;5033967;28;20260;-84
2020/12/08 04:18:14;;;;;;;8.97;6.00;;;3.50;77.20;;;;;;5014664;28;20202;-84
2020/12/08 04:20:44;;;;;;;10.80;6.90;;;3.60;76.80;;;;;;5034341;28;20220;-84
2020/12/08 04:23:15;;;;;;;9.67;6.30;;;3.70;76.00;;;;;;5005952;28;20211;-84
2020/12/08 04:25:41;;;;;;;11.50;6.93;;;6.40;77.70;;;;;;5013749;28;20247;-84
2020/12/08 04:28:07;;;;;;;10.03;6.33;;;3.70;75.40;;;;;;5003406;28;20227;-84
2020/12/08 04:30:34;;;;;;;11.07;6.43;;;3.70;75.40;;;;;;5003381;28;20199;-84
2020/12/08 04:33:00;;;;;;;10.37;6.77;;;3.80;75.40;;;;;;5017012;28;20278;-85
2020/12/08 04:35:26;;;;;;;12.20;7.20;;;3.70;75.80;;;;;;5010834;28;20247;-84
2020/12/08 04:37:53;;;;;;;8.03;5.77;;;;;;;;;;5007078;28;20219;-84
2020/12/08 04:40:19;;;;;;;8.40;5.47;;;;;;;;;;5007762;28;20191;-84
2020/12/08 04:42:49;;;;;;;9.40;5.63;;;3.70;76.20;;;;;;5005881;28;20188;-84
2020/12/08 04:45:15;;;;;;;9.90;5.97;;;3.80;76.20;;;;;;5008421;28;20535;-84
2020/12/08 04:47:45;;;;;;;9.70;6.20;;;3.80;76.50;;;;;;5006690;28;20192;-84
2020/12/08 04:50:16;;;;;;;9.80;5.87;;;3.70;76.60;;;;;;5007257;28;20211;-84
2020/12/08 04:52:42;;;;;;;8.63;5.50;;;;;;;;;;5016163;28;20187;-84
2020/12/08 04:55:08;;;;;;;8.40;5.63;;;;;;;;;;5007722;28;20293;-84
2020/12/08 04:57:34;;;;;;;9.13;6.53;;;;;;;;;;5007875;28;20192;-83
2020/12/08 05:00:08;;;;;;;9.07;5.40;;;3.70;76.90;;;;;;5011085;28;20305;-83
2020/12/08 05:02:54;;;;;;;8.77;6.20;;;3.70;77.10;;;;;;5014086;28;20715;-83
2020/12/08 05:05:22;;;;;;;10.57;5.97;;;3.70;77.10;;;;;;5034811;28;20195;-84
2020/12/08 05:07:48;;;;;;;9.20;5.47;;;;;;;;;;5006389;28;20558;-84
2020/12/08 05:10:15;;;;;;;8.53;5.60;;;3.60;78.00;;;;;;5029287;28;20195;-84
2020/12/08 05:12:40;;;;;;;9.33;5.63;;;3.60;79.10;;;;;;5004675;28;20195;-84
2020/12/08 05:15:15;;;;;;;10.27;7.17;;;3.70;78.40;;;;;;5011743;28;20306;-83
2020/12/08 05:17:43;;;;;;;10.30;5.80;;;;;;;;;;5016799;28;20309;-84
2020/12/08 05:20:10;;;;;;;10.17;6.43;;;3.70;77.80;;;;;;5009935;28;20207;-84
2020/12/08 05:22:36;;;;;;;11.30;6.53;;;;;;;;;;5008584;28;20203;-83
2020/12/08 05:25:09;;;;;;;10.70;6.57;;;3.70;78.00;;;;;;5018948;28;20227;-84
2020/12/08 05:27:35;;;;;;;11.27;6.57;;;3.70;78.00;;;;;;5002857;28;20962;-84
2020/12/08 05:30:08;;;;;;;9.47;6.00;;;3.70;78.20;;;;;;5014786;28;20298;-84
2020/12/08 05:32:39;;;;;;;13.57;6.53;;;3.60;78.10;;;;;;5007478;28;20635;-84
2020/12/08 05:35:10;;;;;;;12.43;7.30;;;3.60;78.40;;;;;;5014836;28;20215;-84
2020/12/08 05:37:37;;;;;;;8.53;5.40;;;3.60;78.20;;;;;;5028521;28;20216;-84
2020/12/08 05:40:05;;;;;;;10.70;6.73;;;3.50;78.70;;;;;;5017820;28;20209;-84
2020/12/08 05:42:33;;;;;;;11.83;6.43;;;3.50;78.80;;;;;;5009659;28;20198;-84
2020/12/08 05:45:00;;;;;;;10.57;6.00;;;;;;;;;;5011984;28;20188;-84
2020/12/08 05:47:25;;;;;;;8.50;5.67;;;3.60;78.60;;;;;;5004829;28;20266;-84
2020/12/08 05:50:00;;;;;;;10.40;6.23;;;;;;;;;;5025899;28;20180;-84
2020/12/08 05:52:31;;;;;;;7.07;4.93;;;3.60;79.20;;;;;;5007614;28;20201;-84
2020/12/08 05:55:07;;;;;;;11.97;7.53;;;3.60;79.70;;;;;;5019066;28;20256;-84
2020/12/08 05:57:33;;;;;;;11.33;6.10;;;;;;;;;;5014659;28;20246;-85
2020/12/08 06:00:00;;;;;;;11.93;6.33;;;;;;;;;;5009499;28;20188;-84
2020/12/08 06:02:30;;;;;;;11.13;6.57;;;3.60;79.60;;;;;;5012029;28;20192;-84
2020/12/08 06:04:56;;;;;;;11.40;6.77;;;;;;;;;;5008381;28;20208;-84
2020/12/08 06:07:32;;;;;;;12.30;6.93;;;3.60;79.70;;;;;;4999702;28;20198;-84
2020/12/08 06:10:09;;;;;;;11.43;6.87;;;3.50;79.90;;;;;;5003126;28;20199;-84
2020/12/08 06:12:36;;;;;;;12.30;7.13;;;3.40;80.10;;;;;;5012562;28;20195;-84
2020/12/08 06:15:17;;;;;;;12.33;5.73;;;3.40;80.50;;;;;;5003824;28;20694;-84
2020/12/08 06:17:46;;;;;;;9.23;5.97;;;3.40;81.00;;;;;;5005529;28;20195;-84
2020/12/08 06:20:13;;;;;;;11.70;6.77;;;3.40;80.70;;;;;;5004728;28;20219;-84
2020/12/08 06:22:38;;;;;;;11.77;6.83;;;3.40;80.90;;;;;;5029222;28;20223;-84
2020/12/08 06:25:04;;;;;;;10.93;6.80;;;3.40;80.60;;;;;;5007776;28;20217;-84
2020/12/08 06:27:32;;;;;;;14.33;8.30;;;3.50;79.90;;;;;;5015698;28;20188;-84
2020/12/08 06:29:58;;;;;;;10.23;7.47;;;;;;;;;;5029878;28;20171;-84
2020/12/08 06:32:31;;;;;;;10.50;6.40;;;3.50;79.20;;;;;;5009135;28;20180;-84
2020/12/08 06:35:13;;;;;;;11.90;6.67;;;3.50;79.60;;;;;;5019817;28;20215;-84
2020/12/08 06:37:51;;;;;;;10.80;7.23;;;3.50;79.70;;;;;;5024303;28;20222;-85
2020/12/08 06:40:20;;;;;;;12.77;7.17;;;3.60;79.40;;;;;;5013654;28;20175;-86
2020/12/08 06:42:49;;;;;;;7.80;5.03;;;3.60;79.30;;;;;;5012304;28;20191;-86
2020/12/08 06:45:23;;;;;;;11.83;7.00;;;3.60;79.40;;;;;;5016677;28;20191;-86
2020/12/08 06:47:50;;;;;;;8.87;6.47;;;3.50;79.30;;;;;;5007940;28;20217;-85
2020/12/08 06:50:30;;;;;;;10.40;6.30;;;3.50;79.80;;;;;;5015776;28;20255;-85
2020/12/08 06:52:58;;;;;;;11.10;6.07;;;3.40;80.20;;;;;;5005745;28;20215;-85
2020/12/08 06:55:25;;;;;;;7.93;4.70;;;3.40;80.50;;;;;;5014087;28;20230;-85
2020/12/08 06:57:52;;;;;;;9.73;5.67;;;;;;;;;;5010440;28;20215;-85
2020/12/08 07:00:18;;;;;;;10.07;5.77;;;;;;;;;;5001029;28;20188;-85
2020/12/08 07:02:50;;;;;;;12.00;6.57;;;3.50;80.50;;;;;;5002286;28;20663;-85
2020/12/08 07:05:24;;;;;;;10.80;6.67;;;3.50;80.30;;;;;;5015518;28;20211;-84
2020/12/08 07:07:50;;;;;;;10.17;6.33;;;3.50;79.90;;;;;;5006878;28;20290;-85
2020/12/08 07:10:17;;;;;;;9.23;6.37;;;3.50;80.00;;;;;;5007512;28;20198;-85
2020/12/08 07:12:45;;;;;;;12.63;6.43;;;3.50;79.50;;;;;;5008681;28;20196;-83
2020/12/08 07:15:19;;;;;;;12.67;5.70;;;3.60;79.40;;;;;;5012890;28;20234;-83
2020/12/08 07:17:45;;;;;;;8.77;5.90;;;;;;;;;;5016882;28;20274;-83
2020/12/08 07:20:11;;;;;;;7.97;5.77;;;;;;;;;;5022959;28;20194;-83
2020/12/08 07:22:44;;;;;;;7.47;6.00;;;3.50;79.30;;;;;;5025411;28;20525;-84
2020/12/08 07:25:14;;;;;;;9.83;5.57;;;3.50;79.50;;;;;;5006195;28;20492;-83
2020/12/08 07:27:51;;;;;;;11.67;6.07;;;3.60;79.40;;;;;;5027340;28;20237;-82
2020/12/08 07:30:26;;;;;;;10.27;6.57;;;3.60;79.40;;;;;;5010708;28;20195;-83
2020/12/08 07:32:53;;;;;;;10.57;6.57;;;3.60;79.20;;;;;;5015267;28;20191;-83
2020/12/08 07:35:19;;;;;;;8.73;5.03;;;;;;;;;;5033232;28;20215;-83
2020/12/08 07:37:45;;;;;;;10.67;6.03;;;;;;;;;;5022231;28;20586;-82
2020/12/08 07:40:12;;;;;;;10.33;5.63;;;;;;;;;;5009291;28;20714;-82
2020/12/08 07:42:38;;;;;;;6.97;4.50;;;3.80;78.30;;;;;;5015945;28;20195;-83
2020/12/08 07:45:08;;;;;;;8.93;5.67;;;3.70;77.60;;;;;;5009080;28;20197;-84
2020/12/08 07:47:35;;;;;;;10.17;5.57;;;;;;;;;;5017058;28;20200;-83
2020/12/08 07:50:02;;;;;;;6.97;5.07;;;3.70;78.00;;;;;;5008865;28;20659;-83
2020/12/08 07:52:28;;;;;;;8.83;5.53;;;;;;;;;;5031948;28;20199;-83
2020/12/08 07:54:54;;;;;;;7.23;5.50;;;;;;;;;;5020188;28;20219;-82
2020/12/08 07:57:20;;;;;;;7.60;5.00;;;;;;;;;;5035337;28;20183;-87
2020/12/08 07:59:46;;;;;;;8.47;5.80;;;;;;;;;;5014965;28;20235;-86
2020/12/08 08:02:13;;;;;;;10.90;7.20;;;;;;;;;;5011605;28;20226;-86
2020/12/08 08:04:39;;;;;;;9.67;5.90;;;;;;;;;;5013089;28;20259;-85
2020/12/08 08:07:05;;;;;;;9.83;5.73;;;;;;;;;;5018886;28;20509;-85
2020/12/08 08:09:32;;;;;;;9.60;6.23;;;;;;;;;;5035652;28;20203;-86
2020/12/08 08:11:58;;;;;;;8.37;5.67;;;4.00;75.60;;;;;;5014370;28;20214;-86
2020/12/08 08:14:24;;;;;;;6.53;5.03;;;;;;;;;;5007426;28;20298;-85
2020/12/08 08:16:50;;;;;;;7.90;5.83;;;;;;;;;;5014299;28;20234;-85
2020/12/08 08:19:16;;;;;;;10.40;6.47;;;;;;;;;;5025780;28;20214;-86
2020/12/08 08:21:45;;;;;;;9.20;6.30;;;;;;;;;;5009163;28;20287;-85
2020/12/08 08:24:12;;;;;;;7.73;5.27;;;;;;;;;;5008928;28;20188;-84
2020/12/08 08:26:40;;;;;;;8.87;5.77;;;4.10;74.50;;;;;;5023969;28;20175;-85
2020/12/08 08:29:07;;;;;;;7.87;5.47;;;;;;;;;;5022905;28;20199;-84
2020/12/08 08:31:33;;;;;;;10.20;5.87;;;;;;;;;;5013085;28;20227;-84
2020/12/08 08:33:59;;;;;;;8.20;4.97;;;;;;;;;;5023959;28;20706;-85
2020/12/08 08:36:25;;;;;;;9.03;5.63;;;;;;;;;;5031988;28;20285;-84
2020/12/08 08:38:51;;;;;;;7.17;5.27;;;;;;;;;;5013554;28;20305;-84
2020/12/08 08:41:17;;;;;;;8.17;5.10;;;;;;;;;;5023454;28;20604;-85
2020/12/08 08:43:44;;;;;;;6.40;4.47;;;;;;;;;;5021486;28;20215;-84
2020/12/08 08:46:12;;;;;;;7.40;5.00;;;;;;;;;;5020063;28;20216;-84
2020/12/08 08:48:38;;;;;;;8.43;5.10;;;;;;;;;;5026420;28;20257;-84
2020/12/08 08:51:04;;;;;;;10.13;5.23;;;;;;;;;;5021956;28;20187;-85
2020/12/08 08:53:31;;;;;;;11.77;6.30;;;;;;;;;;5032321;28;20184;-89
2020/12/08 08:55:57;;;;;;;8.90;5.37;;;;;;;;;;5042681;28;20230;-84
2020/12/08 08:58:23;;;;;;;8.97;4.87;;;;;;;;;;5021959;28;20207;-84
2020/12/08 09:00:49;;;;;;;8.10;5.27;;;;;;;;;;5026730;28;20226;-83
2020/12/08 09:03:15;;;;;;;6.53;4.47;;;;;;;;;;4991372;28;20208;-86
2020/12/08 09:05:41;;;;;;;8.37;5.10;;;;;;;;;;5010555;28;20190;-87
2020/12/08 09:08:07;;;;;;;9.23;5.37;;;;;;;;;;5020768;28;20187;-87
2020/12/08 09:10:34;;;;;;;7.33;5.50;;;;;;;;;;5027078;28;20670;-85
2020/12/08 09:13:00;;;;;;;9.63;5.63;;;;;;;;;;5036390;28;20221;-85
2020/12/08 09:15:26;;;;;;;10.50;5.47;;;;;;;;;;5011020;28;20647;-85
2020/12/08 09:17:53;;;;;;;7.73;4.67;;;;;;;;;;5021855;28;20193;-86
2020/12/08 09:20:19;;;;;;;8.57;5.23;;;;;;;;;;5011969;28;20192;-85
2020/12/08 09:22:45;;;;;;;6.73;4.63;;;;;;;;;;5010926;28;20180;-86
2020/12/08 09:25:11;;;;;;;7.77;4.87;;;;;;;;;;5023043;28;20729;-86
2020/12/08 09:27:38;;;;;;;9.07;5.00;;;;;;;;;;5009960;28;20195;-86
2020/12/08 09:30:05;;;;;;;10.93;5.13;;;5.60;67.10;;;;;;5022617;28;20193;-87
2020/12/08 09:32:31;;;;;;;8.37;5.33;;;;;;;;;;5017158;28;20197;-89
2020/12/08 09:34:57;;;;;;;7.77;4.97;;;;;;;;;;5014513;28;20289;-87
2020/12/08 09:37:26;;;;;;;6.43;4.57;;;;;;;;;;5017165;28;20991;-86
2020/12/08 09:39:52;;;;;;;8.23;5.20;;;;;;;;;;5026054;28;20219;-86
2020/12/08 09:42:19;;;;;;;7.60;5.13;;;;;;;;;;5037091;28;20199;-88
2020/12/08 09:44:46;;;;;;;6.73;4.83;;;;;;;;;;5014203;28;20184;-86
2020/12/08 09:47:15;;;;;;;7.23;4.70;;;;;;;;;;5021681;28;20184;-86
2020/12/08 09:49:41;;;;;;;11.20;5.57;;;;;;;;;;5018784;28;20192;-87
2020/12/08 09:52:07;;;;;;;8.67;5.87;;;;;;;;;;5014551;28;20249;-86
2020/12/08 09:54:33;;;;;;;7.93;5.87;;;;;;;;;;5020485;28;20334;-86
2020/12/08 09:56:59;;;;;;;8.10;5.63;;;;;;;;;;5025802;28;20275;-86
2020/12/08 09:59:26;;;;;;;8.30;5.43;;;;;;;;;;5025630;28;20560;-86
2020/12/08 10:01:52;;;;;;;6.83;5.57;;;;;;;;;;5014812;28;20211;-86
2020/12/08 10:04:19;;;;;;;7.93;5.07;;;;;;;;;;5017587;28;20208;-86
2020/12/08 10:06:48;;;;;;;6.50;4.80;;;;;;;;;;5023833;28;20218;-86
2020/12/08 10:09:14;;;;;;;7.00;4.77;;;;;;;;;;5002750;28;20237;-86
2020/12/08 10:11:40;;;;;;;8.37;5.33;;;;;;;;;;5023474;28;20199;-86
2020/12/08 10:14:06;;;;;;;7.90;5.43;;;;;;;;;;5015725;28;21645;-86
2020/12/08 10:16:34;;;;;;;7.90;5.10;;;;;;;;;;5035677;28;20663;-86
2020/12/08 10:19:00;;;;;;;6.77;4.33;;;;;;;;;;5023460;28;20549;-85
2020/12/08 10:21:26;;;;;;;6.37;4.40;;;;;;;;;;5022867;28;20211;-86
2020/12/08 10:23:53;;;;;;;7.37;4.43;;;;;;;;;;5031113;28;20253;-86
2020/12/08 10:26:25;;;;;;;7.33;4.80;;;;;;;;;;5031359;28;20199;-87
2020/12/08 10:28:51;;;;;;;5.03;3.97;;;;;;;;;;5018882;28;20224;-87
2020/12/08 10:31:17;;;;;;;6.30;4.37;;;;;;;;;;5020889;28;20193;-86
2020/12/08 10:33:44;;;;;;;6.10;3.97;;;;;;;;;;5016548;28;20193;-87
2020/12/08 10:36:10;;;;;;;7.37;5.13;;;;;;;;;;5027637;28;20220;-86
2020/12/08 10:38:37;;;;;;;7.43;5.30;;;;;;;;;;5021853;28;20199;-86
2020/12/08 10:41:10;;;;;;;7.60;4.57;;;;;;;;;;5032018;28;20195;-85
2020/12/08 10:43:36;;;;;;;5.80;4.43;;;;;;;;;;5022675;28;20194;-86
2020/12/08 10:46:02;;;;;;;6.37;4.33;;;;;;;;;;5022859;28;20194;-87
2020/12/08 10:48:28;;;;;;;7.23;4.33;;;;;;;;;;5013777;28;20195;-86
2020/12/08 10:50:54;;;;;;;6.97;4.60;;;;;;;;;;5025529;28;20184;-86
2020/12/08 10:53:21;;;;;;;8.53;5.43;;;;;;;;;;5032422;28;20194;-86
2020/12/08 10:55:48;;;;;;;7.37;4.73;;;;;;;;;;5025517;28;20224;-85
2020/12/08 10:58:14;;;;;;;8.87;4.77;;;;;;;;;;5028908;28;20267;-85
2020/12/08 11:00:40;;;;;;;7.40;4.20;;;;;;;;;;5023994;28;20191;-87
2020/12/08 11:03:06;;;;;;;7.33;5.07;;;;;;;;;;5037038;28;20200;-87
2020/12/08 11:05:32;;;;;;;8.57;4.83;;;;;;;;;;5015324;28;20233;-88
2020/12/08 11:07:58;;;;;;;6.87;4.53;;;;;;;;;;5017954;28;20212;-86
2020/12/08 11:10:24;;;;;;;9.77;5.00;;;;;;;;;;5004453;28;20190;-87
2020/12/08 11:12:50;;;;;;;7.70;5.10;;;;;;;;;;5005779;28;20235;-89
2020/12/08 11:15:16;;;;;;;7.00;5.03;;;;;;;;;;5023584;28;21828;-87
2020/12/08 11:17:42;;;;;;;8.03;5.87;;;6.50;60.90;;;;;;5006038;28;20659;-85
2020/12/08 11:20:08;;;;;;;9.57;4.87;;;6.60;60.70;;;;;;5007577;28;20286;-87
2020/12/08 11:22:34;;;;;;;6.83;5.10;;;;;;;;;;5004613;28;20646;-88
2020/12/08 11:25:00;;;;;;;8.77;4.90;;;;;;;;;;5003637;28;20715;-87
2020/12/08 11:27:26;;;;;;;7.20;5.60;;;;;;;;;;5006700;28;20185;-84
2020/12/08 11:29:52;;;;;;;7.37;5.03;;;6.90;59.80;;;;;;5012405;28;20264;-86
2020/12/08 11:32:18;;;;;;;7.90;4.80;;;7.00;59.40;;;;;;5010775;28;20664;-86
2020/12/08 11:34:45;;;;;;;10.73;5.90;;;;;;;;;;5000572;28;20270;-86
2020/12/08 11:37:11;;;;;;;7.57;4.97;;;;;;;;;;5006834;28;20184;-87
2020/12/08 11:39:37;;;;;;;7.53;5.20;;;;;;;;;;5002573;28;20860;-86
2020/12/08 11:42:05;;;;;;;8.23;5.33;;;7.90;56.60;;;;;;5002291;28;20175;-87
2020/12/08 11:44:31;;;;;;;5.23;4.60;;;;;;;;;;5009354;28;20199;-87
2020/12/08 11:46:57;;;;;;;5.17;3.97;;;;;;;;;;5009106;28;20302;-86
2020/12/08 11:49:23;;;;;;;11.60;6.30;;;;;;;;;;5009874;28;20206;-87
2020/12/08 11:51:50;;;;;;;8.60;5.03;;;;;;;;;;5007111;28;20207;-86
2020/12/08 11:54:16;;;;;;;7.17;4.90;;;10.10;48.40;;;;;;5003334;28;20210;-86
2020/12/08 11:56:42;;;;;;;7.27;4.53;;;;;;;;;;5004995;28;20192;-87
2020/12/08 11:59:08;;;;;;;6.17;4.97;;;;;;;;;;5009963;28;20200;-87
2020/12/08 12:01:34;;;;;;;7.27;5.07;;;;;;;;;;5007262;28;20187;-87
2020/12/08 12:04:00;;;;;;;7.57;4.80;;;;;;;;;;5020588;28;20216;-88
2020/12/08 12:06:26;;;;;;;6.80;4.97;;;;;;;;;;5007975;28;20233;-88
2020/12/08 12:08:52;;;;;;;7.87;5.23;;;;;;;;;;5007829;28;20192;-87
2020/12/08 12:11:18;;;;;;;8.30;5.30;;;;;;;;;;5009869;28;20198;-87
2020/12/08 12:13:44;;;;;;;6.33;4.93;;;7.60;56.40;;;;;;5020074;28;20187;-86
2020/12/08 12:16:10;;;;;;;6.87;4.77;;;;;;;;;;5009423;28;20227;-88
2020/12/08 12:18:36;;;;;;;6.87;4.70;;;;;;;;;;5023597;28;20191;-87
2020/12/08 12:21:03;;;;;;;6.63;4.73;;;;;;;;;;5012042;28;20202;-86
2020/12/08 12:23:30;;;;;;;5.57;4.00;;;;;;;;;;5025584;28;20195;-89
2020/12/08 12:25:56;;;;;;;9.17;4.87;;;;;;;;;;5010556;28;20661;-86
2020/12/08 12:28:23;;;;;;;5.43;3.70;;;;;;;;;;5013013;28;21142;-87
2020/12/08 12:30:49;;;;;;;7.10;4.10;;;;;;;;;;5013321;28;20199;-89
2020/12/08 12:33:15;;;;;;;5.97;4.63;;;;;;;;;;5011742;28;20188;-86
2020/12/08 12:35:41;;;;;;;5.07;4.07;;;;;;;;;;5004949;28;20220;-86
2020/12/08 12:38:07;;;;;;;6.53;4.73;;;;;;;;;;5008131;28;20192;-87
2020/12/08 12:40:33;;;;;;;8.13;5.17;;;;;;;;;;5013201;28;20270;-85
2020/12/08 12:42:59;;;;;;;7.93;5.30;;;;;;;;;;5008215;28;20188;-87
2020/12/08 12:45:25;;;;;;;9.37;5.03;;;;;;;;;;5014550;28;20253;-86
2020/12/08 12:47:51;;;;;;;7.33;4.40;;;;;;;;;;5010091;28;20196;-86
2020/12/08 12:50:17;;;;;;;6.90;4.73;;;;;;;;;;5009249;28;20264;-86
2020/12/08 12:52:43;;;;;;;7.70;5.33;;;;;;;;;;5023424;28;20294;-85
2020/12/08 12:55:09;;;;;;;9.13;5.40;;;;;;;;;;5011368;28;20226;-85
2020/12/08 12:57:35;;;;;;;8.77;5.53;;;;;;;;;;5012141;28;21252;-86
2020/12/08 13:00:01;;;;;;;7.63;5.17;;;;;;;;;;5014857;28;21608;-87
2020/12/08 13:02:27;;;;;;;8.53;5.57;;;;;;;;;;5011292;28;20357;-82
2020/12/08 13:04:53;;;;;;;7.60;4.93;;;;;;;;;;5024277;28;20217;-84
2020/12/08 13:07:19;;;;;;;8.60;5.10;;;7.70;57.20;;;;;;5011748;28;20184;-89
2020/12/08 13:09:45;;;;;;;7.63;4.13;;;;;;;;;;5005155;28;20252;-85
2020/12/08 13:12:11;;;;;;;8.60;5.43;;;;;;;;;;5008867;28;20294;-85
2020/12/08 13:14:37;;;;;;;7.10;5.37;;;;;;;;;;5003104;28;20219;-84
2020/12/08 13:17:03;;;;;;;7.90;5.50;;;;;;;;;;5007400;28;20271;-84
2020/12/08 13:19:29;;;;;;;10.07;5.93;;;;;;;;;;5011972;28;20192;-84
2020/12/08 13:21:56;;;;;;;6.63;5.23;;;7.10;58.40;;;;;;5011585;28;20190;-82
2020/12/08 13:24:22;;;;;;;9.50;5.23;;;;;;;;;;5018262;28;20285;-85
2020/12/08 13:26:48;;;;;;;8.07;5.13;;;;;;;;;;5005897;28;21228;-83
2020/12/08 13:29:14;;;;;;;8.80;5.30;;;;;;;;;;5016600;28;20199;-86
2020/12/08 13:31:40;;;;;;;10.13;6.33;;;;;;;;;;5014686;28;20659;-85
2020/12/08 13:34:06;;;;;;;7.47;5.47;;;;;;;;;;5008287;28;20184;-85
2020/12/08 13:36:32;;;;;;;7.50;5.03;;;;;;;;;;5018895;28;20211;-85
2020/12/08 13:38:58;;;;;;;7.70;5.33;;;;;;;;;;5013315;28;20207;-85
2020/12/08 13:41:24;;;;;;;8.03;4.73;;;;;;;;;;5008547;28;20194;-88
2020/12/08 13:43:50;;;;;;;7.43;5.57;;;;;;;;;;5033351;28;20326;-86
2020/12/08 13:46:21;;;;;;;7.23;4.87;;;7.80;57.30;;;;;;5029955;28;20195;-85
2020/12/08 13:48:47;;;;;;;12.67;5.47;;;;;;;;;;5017794;28;20308;-84
2020/12/08 13:51:13;;;;;;;8.70;5.80;;;;;;;;;;5016255;28;20209;-86
2020/12/08 13:53:39;;;;;;;7.23;4.80;;;;;;;;;;5015502;28;20709;-86
2020/12/08 13:56:05;;;;;;;7.63;5.20;;;;;;;;;;5014311;28;20223;-86
2020/12/08 13:58:32;;;;;;;8.40;5.13;;;;;;;;;;5019728;28;20905;-87
2020/12/08 14:00:58;;;;;;;7.23;5.53;;;7.70;58.40;;;;;;5015325;28;20222;-85
2020/12/08 14:03:24;;;;;;;7.47;5.53;;;;;;;;;;5008249;28;20806;-85